• Join FlightAware (Why Join?)
  • Login
  • US Flag 
10:21AM EDT


 

Airport Tracker/Info


-or-


 

Live Flight TrackerFlight Track Log ✈ KAP2826 ✈ 06-May-2013 ✈ KACK - KBOS

Flight Track Log - Related Links

Times and Time Zones

All times are in EDT time to prevent confusion due to time zone crossing. See the KAP2826 flight status page for this flight to view local times or setup timezone preferences in your user account.

Time Position Orientation Groundspeed Altitude Reporting Facility
EDT Latitude Longitude Course Direction KTS MPH feet Rate Location/Type
08:22AM 41.3677 -70.1464 331° Northwest  Level FlightAware Approximate
08:23AM 41.3868 -70.1608 331° Northwest  Level FlightAware Approximate
08:24AM 41.4059 -70.1752 331° Northwest  Level FlightAware Approximate
08:25AM 41.4190 -70.1857 323° Northwest  Level FlightAware Approximate
08:26AM 41.4366 -70.2032 323° Northwest  Level FlightAware Approximate
08:27AM 41.4544 -70.2201 330° Northwest  Level FlightAware Approximate
08:28AM 41.4734 -70.2347 330° Northwest  Level FlightAware Approximate
08:29AM 41.4924 -70.2494 330° Northwest  Level FlightAware Approximate
08:30AM 41.5114 -70.2641 330° Northwest  Level FlightAware Approximate
08:31AM 41.5303 -70.2787 330° Northwest  Level FlightAware Approximate
08:32AM 41.5493 -70.2934 330° Northwest  Level FlightAware Approximate
08:32AM 41.7667 -70.4833 330° Northwest 160 184 4,000  Level KA90
08:32AM 41.7833 -70.4833 360° North 159 183 4,000  Level KA90
08:33AM 41.5683 -70.3081 330° Northwest  Level FlightAware Approximate
08:33AM 41.8167 -70.5167 323° Northwest 160 184 4,000  Level KA90
08:34AM 41.5873 -70.3228 330° Northwest  Level FlightAware Approximate
08:35AM 41.6062 -70.3375 330° Northwest  Level FlightAware Approximate
08:35AM 41.8833 -70.5833 323° Northwest 159 183 4,000  Level KA90
08:36AM 41.6252 -70.3522 330° Northwest  Level FlightAware Approximate
08:36AM 41.9167 -70.6333 312° West 159 183 4,000  Level KA90
08:37AM 41.6442 -70.3670 330° Northwest  Level FlightAware Approximate
08:37AM 41.9500 -70.6667 323° Northwest 161 185 4,000  Level KA90
08:38AM 42.0000 -70.7000 334° Northwest 161 185 4,000  Level KA90
08:40AM 42.0333 -70.8000 294° West 156 180 4,000  Level KA90
08:41AM 42.0500 -70.8500 294° West 151 174 4,000  Level KA90
08:42AM 42.0333 -70.9167 251° West 161 185 4,000  Level KA90
08:43AM 42.0333 -70.9833 270° West 164 189 4,000 -300 Level KA90
08:45AM 42.0717 -70.9860 357° North  Level Estimated
08:46AM 42.1000 -71.1500 357° North 166 191 3,000  Level KA90
08:47AM 42.1333 -71.1333 20° North 170 196 3,000 -300 Level KA90
08:49AM 42.1689 -71.1138 22° Northeast  Level Estimated
08:50AM 42.2667 -71.0500 22° Northeast 182 209 1,900  Level KA90
08:51AM 42.3167 -71.0333 14° North 145 167 1,100 -780 Descending KA90
08:52AM 42.3500 -71.0167 20° North 136 157 400 -720 Descending KA90
08:54AM 42.3500 -71.0000 324° Northwest  Level FlightAware Approximate